createdAt,value
2022-12-13T00:02:14.437Z,99465.69
2022-12-13T00:07:16.141Z,99460.53
2022-12-13T00:12:19.059Z,99458.00
2022-12-13T00:17:20.840Z,99452.56
2022-12-13T00:22:22.495Z,99451.22
2022-12-13T00:27:24.228Z,99446.81
2022-12-13T00:32:25.925Z,99452.16
2022-12-13T00:37:27.591Z,99443.81
2022-12-13T00:42:29.240Z,99449.94
2022-12-13T00:47:30.917Z,99454.50
2022-12-13T00:52:34.661Z,99444.75
2022-12-13T00:57:36.425Z,99438.94
2022-12-13T01:02:38.198Z,99447.09
2022-12-13T01:07:44.499Z,99446.53
2022-12-13T01:12:47.259Z,99452.34
2022-12-13T01:17:49.521Z,99441.66
2022-12-13T01:22:51.184Z,99446.06
2022-12-13T01:27:52.865Z,99432.38
2022-12-13T01:32:54.644Z,99422.19
2022-12-13T01:37:56.300Z,99431.78
2022-12-13T01:43:00.016Z,99428.59
2022-12-13T01:48:07.603Z,99424.56
2022-12-13T01:53:14.919Z,99431.91
2022-12-13T01:58:17.517Z,99431.16
2022-12-13T02:03:22.150Z,99430.56
2022-12-13T02:08:25.480Z,99429.75
2022-12-13T02:13:27.243Z,99430.94
2022-12-13T02:18:50.491Z,99429.53
2022-12-13T02:24:13.844Z,99426.97
2022-12-13T02:30:03.106Z,99426.81
2022-12-13T02:35:29.556Z,99424.41
2022-12-13T02:40:39.679Z,99416.16
2022-12-13T02:45:46.712Z,99424.66
2022-12-13T02:50:49.950Z,99431.28
2022-12-13T02:55:51.688Z,99424.06
2022-12-13T03:01:27.970Z,99426.78
2022-12-13T03:06:34.749Z,99427.50
2022-12-13T03:12:32.412Z,99434.03
2022-12-13T03:17:44.145Z,99429.19
2022-12-13T03:22:45.859Z,99422.53
2022-12-13T03:27:47.534Z,99429.19
2022-12-13T03:32:49.206Z,99425.81
2022-12-13T03:37:51.350Z,99416.22
2022-12-13T03:42:53.016Z,99414.63
2022-12-13T03:47:54.673Z,99408.19
2022-12-13T03:53:04.008Z,99397.47
2022-12-13T03:58:07.964Z,99392.00
2022-12-13T04:03:09.983Z,99401.53
2022-12-13T04:08:21.551Z,99398.78
2022-12-13T04:13:35.108Z,99414.63
2022-12-13T04:18:36.798Z,99406.91
2022-12-13T04:23:38.504Z,99405.44
2022-12-13T04:28:40.185Z,99415.44
2022-12-13T04:33:41.845Z,99408.06
2022-12-13T04:38:43.530Z,99401.56
2022-12-13T04:43:50.193Z,99399.31
2022-12-13T04:48:51.871Z,99413.03
2022-12-13T04:53:53.580Z,99407.84
2022-12-13T04:58:55.293Z,99410.69
2022-12-13T05:03:57.064Z,99405.13
2022-12-13T05:09:00.627Z,99414.47
2022-12-13T05:14:02.842Z,99412.59
2022-12-13T05:19:04.671Z,99408.75
2022-12-13T05:24:06.936Z,99423.81
2022-12-13T05:29:08.649Z,99427.53
2022-12-13T05:34:10.328Z,99425.41
2022-12-13T05:39:29.401Z,99428.66
2022-12-13T05:44:32.743Z,99437.13
2022-12-13T05:49:34.508Z,99430.34
2022-12-13T05:54:36.222Z,99436.66
2022-12-13T05:59:37.880Z,99438.97
2022-12-13T06:04:39.583Z,99432.19
2022-12-13T06:09:41.559Z,99430.13
2022-12-13T06:14:43.208Z,99437.09
2022-12-13T06:19:46.477Z,99441.41
2022-12-13T06:24:48.162Z,99443.53
2022-12-13T06:29:49.953Z,99446.53
2022-12-13T06:34:51.617Z,99449.78
2022-12-13T06:39:53.314Z,99456.94
2022-12-13T06:44:56.246Z,99450.22
2022-12-13T06:49:58.121Z,99452.78
2022-12-13T06:55:07.790Z,99456.84
2022-12-13T07:00:10.343Z,99458.66
2022-12-13T07:05:12.077Z,99460.84
2022-12-13T07:10:22.485Z,99467.25
2022-12-13T07:15:24.821Z,99466.44
2022-12-13T07:20:26.571Z,99473.22
2022-12-13T07:25:29.714Z,99466.81
2022-12-13T07:30:34.551Z,99481.06
2022-12-13T07:35:44.011Z,99481.03
2022-12-13T07:40:45.756Z,99475.31
2022-12-13T07:45:47.449Z,99481.03
2022-12-13T07:50:54.554Z,99489.13
2022-12-13T07:55:56.774Z,99491.19
2022-12-13T08:01:03.649Z,99498.63
2022-12-13T08:06:08.116Z,99502.09
2022-12-13T08:11:12.766Z,99493.75
2022-12-13T08:16:27.824Z,99492.28
2022-12-13T08:21:54.490Z,99494.38
2022-12-13T08:27:02.444Z,99490.47
2022-12-13T08:32:09.006Z,99487.88
2022-12-13T08:37:10.667Z,99489.88
2022-12-13T08:42:18.176Z,99487.94
2022-12-13T08:47:25.508Z,99495.91
2022-12-13T08:52:28.185Z,99491.56
2022-12-13T08:57:29.899Z,99490.94
2022-12-13T09:02:31.620Z,99485.50
2022-12-13T09:07:41.227Z,99487.34
2022-12-13T09:12:43.206Z,99480.75
2022-12-13T09:17:44.924Z,99478.75
2022-12-13T09:23:01.729Z,99486.09
2022-12-13T09:28:06.642Z,99486.69
2022-12-13T09:33:18.165Z,99482.88
2022-12-13T09:38:30.065Z,99481.00
2022-12-13T09:43:42.990Z,99482.75
2022-12-13T09:48:48.359Z,99480.22
2022-12-13T09:53:52.776Z,99461.84
2022-12-13T09:58:56.730Z,99457.50
2022-12-13T10:04:00.075Z,99456.47
2022-12-13T10:09:01.802Z,99449.78
2022-12-13T10:14:12.844Z,99443.63
2022-12-13T10:19:29.168Z,99444.78
2022-12-13T10:25:00.204Z,99425.13
2022-12-13T10:30:10.980Z,99428.56
2022-12-13T10:35:20.844Z,99416.81
2022-12-13T10:40:32.413Z,99403.75
2022-12-13T10:45:35.310Z,99389.66
2022-12-13T10:50:37.294Z,99391.19
2022-12-13T10:55:39.104Z,99377.00
2022-12-13T11:00:47.432Z,99381.75
2022-12-13T11:06:03.252Z,99378.78
2022-12-13T11:11:07.284Z,99369.72
2022-12-13T11:16:26.844Z,99357.38
2022-12-13T11:21:34.029Z,99356.75
2022-12-13T11:26:39.420Z,99354.16
2022-12-13T11:32:08.855Z,99351.06
2022-12-13T11:37:13.327Z,99345.19
2022-12-13T11:42:18.163Z,99338.91
2022-12-13T11:47:26.935Z,99340.31
2022-12-13T11:52:42.242Z,99343.06
2022-12-13T11:57:55.483Z,99356.53
2022-12-13T12:03:06.621Z,99341.56
2022-12-13T12:08:40.617Z,99337.28
2022-12-13T12:14:09.451Z,99338.25
2022-12-13T12:19:14.717Z,99343.94
2022-12-13T12:24:29.723Z,99334.09
2022-12-13T12:29:46.583Z,99336.50
2022-12-13T12:35:03.024Z,99326.06
2022-12-13T12:41:15.798Z,99328.69
2022-12-13T12:46:20.126Z,99331.81
2022-12-13T12:51:28.808Z,99325.56
2022-12-13T12:56:43.869Z,99321.75
2022-12-13T13:02:07.312Z,99329.31
2022-12-13T13:07:23.092Z,99320.56
2022-12-13T13:12:29.034Z,99321.81
2022-12-13T13:17:32.176Z,99326.88
2022-12-13T13:22:44.322Z,99319.13
2022-12-13T13:27:48.643Z,99323.75
2022-12-13T13:32:53.307Z,99330.38
2022-12-13T13:38:05.496Z,99335.72
2022-12-13T13:43:10.201Z,99333.94
2022-12-13T13:48:42.987Z,99329.47
2022-12-13T13:53:44.594Z,99340.28
2022-12-13T13:58:58.156Z,99355.03
2022-12-13T14:04:18.293Z,99354.88
2022-12-13T14:09:42.104Z,99357.97
2022-12-13T14:15:01.299Z,99362.59
2022-12-13T14:20:18.221Z,99364.66
2022-12-13T14:25:52.330Z,99358.53
2022-12-13T14:30:57.586Z,99364.22
2022-12-13T14:36:01.795Z,99366.19
2022-12-13T14:41:03.627Z,99363.84
2022-12-13T14:46:07.253Z,99370.94
2022-12-13T14:51:30.697Z,99365.22
2022-12-13T14:56:32.901Z,99369.66
2022-12-13T15:01:36.917Z,99374.06
2022-12-13T15:06:39.574Z,99359.41
2022-12-13T15:11:44.110Z,99352.34
2022-12-13T15:16:50.584Z,99349.47
2022-12-13T15:22:01.566Z,99350.31
2022-12-13T15:27:08.226Z,99351.31
2022-12-13T15:32:19.149Z,99347.09
2022-12-13T15:37:28.220Z,99354.50
2022-12-13T15:42:38.511Z,99355.22
2022-12-13T15:47:45.559Z,99351.53
2022-12-13T15:52:47.862Z,99350.88
2022-12-13T15:57:55.246Z,99356.78
2022-12-13T16:03:11.560Z,99352.41
2022-12-13T16:08:31.310Z,99353.94
2022-12-13T16:13:37.944Z,99364.69
2022-12-13T16:18:46.817Z,99372.66
2022-12-13T16:23:49.263Z,99365.06
2022-12-13T16:28:51.241Z,99357.47
2022-12-13T16:33:53.907Z,99360.84
2022-12-13T16:38:55.560Z,99359.47
2022-12-13T16:44:00.742Z,99349.66
2022-12-13T16:49:08.953Z,99344.63
2022-12-13T16:54:10.614Z,99337.84
2022-12-13T16:59:20.680Z,99336.38
2022-12-13T17:04:24.483Z,99335.53
2022-12-13T17:09:26.199Z,99327.19
2022-12-13T17:14:27.878Z,99333.91
2022-12-13T17:19:29.567Z,99331.53
2022-12-13T17:24:31.336Z,99332.34
2022-12-13T17:29:33.897Z,99341.28
2022-12-13T17:34:35.614Z,99320.97
2022-12-13T17:39:37.652Z,99337.81
2022-12-13T17:44:39.745Z,99332.13
2022-12-13T17:49:41.444Z,99330.88
2022-12-13T17:54:43.201Z,99333.09
2022-12-13T17:59:44.912Z,99336.25
2022-12-13T18:04:46.624Z,99324.53
2022-12-13T18:09:48.380Z,99331.34
2022-12-13T18:14:51.922Z,99326.78
2022-12-13T18:19:53.621Z,99322.06
2022-12-13T18:24:55.273Z,99329.78
2022-12-13T18:29:56.939Z,99319.03
2022-12-13T18:34:58.612Z,99323.00
2022-12-13T18:40:00.268Z,99324.00
2022-12-13T18:45:02.290Z,99329.91
2022-12-13T18:50:04.282Z,99315.75
2022-12-13T18:55:06.656Z,99323.38
2022-12-13T19:00:09.123Z,99323.16
2022-12-13T19:05:10.846Z,99315.59
2022-12-13T19:10:12.519Z,99314.56
2022-12-13T19:15:15.315Z,99305.72
2022-12-13T19:20:18.051Z,99306.69
2022-12-13T19:25:20.809Z,99329.13
2022-12-13T19:30:23.816Z,99326.00
2022-12-13T19:35:26.063Z,99317.78
2022-12-13T19:40:27.804Z,99330.41
2022-12-13T19:45:29.510Z,99308.72
2022-12-13T19:50:31.179Z,99303.41
2022-12-13T19:55:35.689Z,99298.72
2022-12-13T20:00:37.428Z,99305.16
2022-12-13T20:05:45.337Z,99299.63
2022-12-13T20:10:47.724Z,99295.91
2022-12-13T20:15:49.657Z,99301.00
2022-12-13T20:21:10.991Z,99296.19
2022-12-13T20:26:15.176Z,99301.50
2022-12-13T20:31:38.114Z,99298.25
2022-12-13T20:36:41.198Z,99295.03
2022-12-13T20:41:42.902Z,99287.53
2022-12-13T20:46:44.667Z,99286.88
2022-12-13T20:51:46.344Z,99299.19
2022-12-13T20:56:48.030Z,99292.69
2022-12-13T21:01:49.847Z,99281.06
2022-12-13T21:06:51.548Z,99282.16
2022-12-13T21:11:53.280Z,99276.25
2022-12-13T21:16:57.435Z,99282.63
2022-12-13T21:21:59.342Z,99275.84
2022-12-13T21:27:01.183Z,99272.38
2022-12-13T21:32:03.094Z,99270.56
2022-12-13T21:37:05.812Z,99266.13
2022-12-13T21:42:07.475Z,99259.56
2022-12-13T21:47:12.243Z,99250.94
2022-12-13T21:52:14.542Z,99243.38
2022-12-13T21:57:34.589Z,99236.81
2022-12-13T22:02:36.374Z,99222.75
2022-12-13T22:07:38.537Z,99231.03
2022-12-13T22:12:41.386Z,99229.56
2022-12-13T22:17:43.288Z,99227.22
2022-12-13T22:22:45.416Z,99229.69
2022-12-13T22:27:47.116Z,99218.19
2022-12-13T22:32:48.792Z,99220.22
2022-12-13T22:37:50.443Z,99210.25
2022-12-13T22:42:52.109Z,99211.59
2022-12-13T22:47:54.492Z,99198.78
2022-12-13T22:52:56.188Z,99194.31
2022-12-13T22:57:57.856Z,99204.19
2022-12-13T23:02:59.558Z,99193.47
2022-12-13T23:08:01.301Z,99185.03
2022-12-13T23:13:03.020Z,99171.91
2022-12-13T23:18:04.733Z,99168.53
2022-12-13T23:23:06.424Z,99178.31
2022-12-13T23:28:08.097Z,99162.16
2022-12-13T23:33:09.788Z,99155.16
2022-12-13T23:38:11.465Z,99150.06
2022-12-13T23:43:13.122Z,99150.38
2022-12-13T23:48:14.774Z,99134.66
2022-12-13T23:53:16.466Z,99129.53
2022-12-13T23:58:22.411Z,99124.41
